createdAt,value
2018-09-05T00:02:17.532Z,101739.06
2018-09-05T00:04:46.003Z,101708.38
2018-09-05T00:07:14.484Z,101732.02
2018-09-05T00:09:42.962Z,101727.31
2018-09-05T00:12:11.473Z,101733.47
2018-09-05T00:14:39.947Z,101731.23
2018-09-05T00:17:08.411Z,101731.92
2018-09-05T00:19:36.888Z,101734.33
2018-09-05T00:22:05.397Z,101727.83
2018-09-05T00:24:33.852Z,101729.94
2018-09-05T00:27:02.328Z,101718.41
2018-09-05T00:29:30.786Z,101715.98
2018-09-05T00:31:59.284Z,101718.23
2018-09-05T00:34:27.732Z,101722.11
2018-09-05T00:36:56.252Z,101719.97
2018-09-05T00:39:24.744Z,101723.52
2018-09-05T00:41:53.261Z,101724.09
2018-09-05T00:44:21.776Z,101717.75
2018-09-05T00:46:50.284Z,101722.88
2018-09-05T00:49:18.835Z,101723.77
2018-09-05T00:51:47.300Z,101725.42
2018-09-05T00:54:15.779Z,101723.95
2018-09-05T00:56:44.288Z,101725.09
2018-09-05T00:59:12.762Z,101724.50
2018-09-05T01:01:41.225Z,101720.44
2018-09-05T01:04:09.846Z,101721.79
2018-09-05T01:06:38.319Z,101723.44
2018-09-05T01:09:08.104Z,101721.30
2018-09-05T01:11:36.731Z,101715.61
2018-09-05T01:14:05.192Z,101721.03
2018-09-05T01:16:33.663Z,101716.61
2018-09-05T01:19:02.204Z,101725.13
2018-09-05T01:21:30.808Z,101718.86
2018-09-05T01:23:59.293Z,101725.36
2018-09-05T01:26:27.772Z,101726.80
2018-09-05T01:28:56.344Z,101726.76
2018-09-05T01:31:24.927Z,101733.68
2018-09-05T01:33:53.438Z,101727.61
2018-09-05T01:36:21.936Z,101720.57
2018-09-05T01:38:50.809Z,101725.20
2018-09-05T01:41:19.312Z,101723.61
2018-09-05T01:43:47.787Z,101728.91
2018-09-05T01:46:16.284Z,101733.03
2018-09-05T01:48:44.744Z,101732.84
2018-09-05T01:51:13.214Z,101721.84
2018-09-05T01:53:41.691Z,101721.20
2018-09-05T01:56:10.226Z,101721.03
2018-09-05T01:58:38.688Z,101711.80
2018-09-05T02:01:07.220Z,101713.27
2018-09-05T02:03:35.675Z,101713.03
2018-09-05T02:06:04.231Z,101712.84
2018-09-05T02:08:32.731Z,101711.13
2018-09-05T02:11:01.290Z,101707.25
2018-09-05T02:13:29.715Z,101706.81
2018-09-05T02:15:58.250Z,101701.11
2018-09-05T02:18:26.729Z,101708.05
2018-09-05T02:20:55.200Z,101712.21
2018-09-05T02:23:23.718Z,101704.75
2018-09-05T02:25:52.185Z,101711.14
2018-09-05T02:28:20.665Z,101708.84
2018-09-05T02:30:49.142Z,101703.33
2018-09-05T02:33:17.972Z,101707.02
2018-09-05T02:35:46.459Z,101710.27
2018-09-05T02:38:14.945Z,101709.52
2018-09-05T02:40:43.596Z,101703.77
2018-09-05T02:43:12.724Z,101705.55
2018-09-05T02:48:32.084Z,101708.20
2018-09-05T02:51:00.566Z,101703.27
2018-09-05T02:53:29.020Z,101710.36
2018-09-05T02:56:03.155Z,101706.91
2018-09-05T02:58:33.456Z,101700.02
2018-09-05T03:01:02.400Z,101702.02
2018-09-05T03:03:30.883Z,101706.21
2018-09-05T03:05:59.404Z,101706.72
2018-09-05T03:08:27.892Z,101708.00
2018-09-05T03:10:56.423Z,101604.50
2018-09-05T03:13:25.287Z,101712.96
2018-09-05T03:15:53.740Z,101711.17
2018-09-05T03:18:22.212Z,101716.31
2018-09-05T03:20:50.795Z,101710.63
2018-09-05T03:23:19.382Z,101702.69
2018-09-05T03:25:47.802Z,101704.72
2018-09-05T03:28:16.308Z,101710.05
2018-09-05T03:30:44.784Z,101708.47
2018-09-05T03:33:13.319Z,101708.27
2018-09-05T03:35:41.796Z,101706.27
2018-09-05T03:38:10.283Z,101702.69
2018-09-05T03:40:38.781Z,101708.83
2018-09-05T03:43:07.343Z,101706.77
2018-09-05T03:45:35.829Z,101716.08
2018-09-05T03:48:04.352Z,101716.97
2018-09-05T03:50:32.883Z,101713.36
2018-09-05T03:53:01.364Z,101720.80
2018-09-05T03:55:29.924Z,101721.98
2018-09-05T03:57:58.437Z,101721.63
2018-09-05T04:00:31.032Z,101718.46
2018-09-05T04:02:59.828Z,101722.98
2018-09-05T04:05:28.468Z,101721.53
2018-09-05T04:07:56.964Z,101728.65
2018-09-05T04:10:25.429Z,101725.08
2018-09-05T04:12:53.925Z,101725.52
2018-09-05T04:15:22.449Z,101732.89
2018-09-05T04:17:50.977Z,101725.59
2018-09-05T04:20:19.576Z,101730.17
2018-09-05T04:22:48.147Z,101728.59
2018-09-05T04:25:16.619Z,101724.83
2018-09-05T04:27:45.069Z,101726.86
2018-09-05T04:30:13.564Z,101728.14
2018-09-05T04:32:42.066Z,101732.41
2018-09-05T04:35:10.572Z,101730.56
2018-09-05T04:37:39.079Z,101734.55
2018-09-05T04:40:07.616Z,101727.33
2018-09-05T04:42:36.174Z,101729.88
2018-09-05T04:45:04.720Z,101735.66
2018-09-05T04:47:33.216Z,101737.55
2018-09-05T04:50:01.674Z,101735.59
2018-09-05T04:52:30.196Z,101742.03
2018-09-05T04:54:58.808Z,101739.17
2018-09-05T04:57:27.319Z,101741.30
2018-09-05T04:59:55.872Z,101739.03
2018-09-05T05:02:24.424Z,101744.79
2018-09-05T05:04:53.007Z,101739.47
2018-09-05T05:07:21.515Z,101747.14
2018-09-05T05:09:50.021Z,101749.06
2018-09-05T05:12:18.497Z,101743.36
2018-09-05T05:14:47.052Z,101747.72
2018-09-05T05:17:15.547Z,101755.67
2018-09-05T05:19:44.028Z,101758.84
2018-09-05T05:22:14.348Z,101758.45
2018-09-05T05:24:42.822Z,101755.74
2018-09-05T05:27:11.316Z,101764.97
2018-09-05T05:29:39.797Z,101762.80
2018-09-05T05:32:08.328Z,101761.22
2018-09-05T05:34:36.875Z,101762.98
2018-09-05T05:37:05.408Z,101760.19
2018-09-05T05:39:33.892Z,101766.78
2018-09-05T05:42:02.381Z,101767.09
2018-09-05T05:44:30.887Z,101764.77
2018-09-05T05:46:59.333Z,101771.33
2018-09-05T05:49:27.806Z,101767.89
2018-09-05T05:51:56.331Z,101772.73
2018-09-05T05:54:24.854Z,101780.53
2018-09-05T05:56:53.396Z,101783.04
2018-09-05T05:59:21.887Z,101774.88
2018-09-05T06:01:50.414Z,101776.19
2018-09-05T06:04:18.952Z,101777.38
2018-09-05T06:06:47.785Z,101790.09
2018-09-05T06:09:16.257Z,101783.34
2018-09-05T06:11:44.789Z,101791.11
2018-09-05T06:14:13.271Z,101795.30
2018-09-05T06:16:41.767Z,101795.41
2018-09-05T06:19:10.612Z,101797.07
2018-09-05T06:21:39.456Z,101803.21
2018-09-05T06:24:08.014Z,101807.42
